createdAt,value
2024-02-06T00:01:52.187Z,100336.38
2024-02-06T00:04:54.723Z,100335.22
2024-02-06T00:07:57.137Z,100340.06
2024-02-06T00:10:59.649Z,100333.44
2024-02-06T00:14:01.774Z,100330.12
2024-02-06T00:17:04.253Z,100334.66
2024-02-06T00:20:06.924Z,100331.25
2024-02-06T00:23:27.861Z,100334.94
2024-02-06T00:26:30.175Z,100337.22
2024-02-06T00:29:32.741Z,100339.97
2024-02-06T00:32:35.035Z,100347.75
2024-02-06T00:35:37.466Z,100332.56
2024-02-06T00:38:39.622Z,100336.00
2024-02-06T00:41:42.587Z,100334.38
2024-02-06T00:44:44.733Z,100333.91
2024-02-06T00:47:50.798Z,100330.22
2024-02-06T00:50:53.180Z,100330.53
2024-02-06T00:53:55.991Z,100325.50
2024-02-06T00:56:58.139Z,100323.91
2024-02-06T01:00:00.870Z,100321.13
2024-02-06T01:03:03.210Z,100321.13
2024-02-06T01:06:17.935Z,100312.53
2024-02-06T01:09:20.406Z,100318.03
2024-02-06T01:12:23.130Z,100317.38
2024-02-06T01:15:25.262Z,100316.72
2024-02-06T01:18:27.757Z,100323.84
2024-02-06T01:21:29.937Z,100319.78
2024-02-06T01:24:32.762Z,100312.53
2024-02-06T01:27:34.935Z,100308.50
2024-02-06T01:30:37.405Z,100315.94
2024-02-06T01:33:39.547Z,100301.25
2024-02-06T01:36:41.962Z,100304.00
2024-02-06T01:39:44.027Z,100292.66
2024-02-06T01:42:48.212Z,100300.09
2024-02-06T01:45:54.133Z,100294.94
2024-02-06T01:48:57.242Z,100296.25
2024-02-06T01:51:59.906Z,100291.56
2024-02-06T01:55:02.526Z,100292.22
2024-02-06T01:58:05.587Z,100300.28
2024-02-06T02:01:08.351Z,100295.44
2024-02-06T02:04:11.123Z,100291.97
2024-02-06T02:07:14.580Z,100291.16
2024-02-06T02:10:17.868Z,100285.97
2024-02-06T02:13:20.164Z,100288.59
2024-02-06T02:16:23.797Z,100275.31
2024-02-06T02:19:26.131Z,100273.81
2024-02-06T02:22:28.701Z,100266.84
2024-02-06T02:25:31.130Z,100263.28
2024-02-06T02:28:33.623Z,100265.75
2024-02-06T02:31:40.582Z,100260.63
2024-02-06T02:34:49.446Z,100256.16
2024-02-06T02:37:51.834Z,100253.59
2024-02-06T02:40:54.302Z,100253.97
2024-02-06T02:43:57.260Z,100258.66
2024-02-06T02:46:59.679Z,100258.47
2024-02-06T02:50:01.968Z,100256.59
2024-02-06T02:53:04.479Z,100255.69
2024-02-06T02:56:06.692Z,100253.94
2024-02-06T02:59:09.241Z,100255.41
2024-02-06T03:02:11.462Z,100256.38
2024-02-06T03:05:13.967Z,100253.50
2024-02-06T03:08:16.115Z,100260.91
2024-02-06T03:11:18.454Z,100258.34
2024-02-06T03:14:20.556Z,100261.22
2024-02-06T03:17:23.013Z,100261.09
2024-02-06T03:20:25.221Z,100254.16
2024-02-06T03:23:27.604Z,100253.16
2024-02-06T03:26:30.483Z,100254.47
2024-02-06T03:29:32.871Z,100242.84
2024-02-06T03:32:35.421Z,100251.88
2024-02-06T03:35:38.948Z,100257.06
2024-02-06T03:38:41.383Z,100258.19
2024-02-06T03:41:43.826Z,100257.69
2024-02-06T03:44:45.958Z,100254.13
2024-02-06T03:47:48.463Z,100254.44
2024-02-06T03:50:50.653Z,100250.22
2024-02-06T03:53:53.052Z,100251.47
2024-02-06T03:56:55.371Z,100250.00
2024-02-06T03:59:57.810Z,100240.59
2024-02-06T04:03:00.010Z,100234.88
2024-02-06T04:06:02.502Z,100239.38
2024-02-06T04:09:04.613Z,100237.88
2024-02-06T04:12:07.267Z,100241.09
2024-02-06T04:15:10.764Z,100232.19
2024-02-06T04:18:13.327Z,100226.84
2024-02-06T04:21:15.612Z,100217.56
2024-02-06T04:24:18.275Z,100220.78
2024-02-06T04:27:20.346Z,100217.19
2024-02-06T04:30:22.822Z,100223.63
2024-02-06T04:33:25.023Z,100223.50
2024-02-06T04:36:27.506Z,100213.03
2024-02-06T04:39:29.581Z,100216.84
2024-02-06T04:42:31.983Z,100219.06
2024-02-06T04:45:34.696Z,100220.13
2024-02-06T04:48:37.201Z,100211.13
2024-02-06T04:51:39.330Z,100229.88
2024-02-06T04:54:42.161Z,100223.94
2024-02-06T04:57:44.379Z,100213.31
2024-02-06T05:00:46.844Z,100211.38
2024-02-06T05:03:49.063Z,100212.47
2024-02-06T05:06:51.761Z,100209.44
2024-02-06T05:09:53.976Z,100201.50
2024-02-06T05:12:56.698Z,100214.22
2024-02-06T05:15:59.380Z,100199.16
2024-02-06T05:19:02.647Z,100201.69
2024-02-06T05:22:05.760Z,100199.75
2024-02-06T05:25:08.403Z,100199.38
2024-02-06T05:28:10.886Z,100207.38
2024-02-06T05:31:13.596Z,100201.50
2024-02-06T05:34:15.932Z,100190.59
2024-02-06T05:37:19.245Z,100200.19
2024-02-06T05:40:21.400Z,100188.41
2024-02-06T05:43:24.396Z,100180.06
2024-02-06T05:46:26.540Z,100179.59
2024-02-06T05:49:29.053Z,100175.59
2024-02-06T05:52:31.260Z,100162.25
2024-02-06T05:55:33.755Z,100164.53
2024-02-06T05:58:39.407Z,100163.19
2024-02-06T06:01:42.064Z,100166.41
2024-02-06T06:04:44.603Z,100166.84
2024-02-06T06:07:46.822Z,100177.28
2024-02-06T06:10:49.570Z,100180.31
2024-02-06T06:13:51.736Z,100160.78
2024-02-06T06:16:54.154Z,100172.06
2024-02-06T06:19:56.409Z,100168.16
2024-02-06T06:22:59.028Z,100162.50
2024-02-06T06:26:01.052Z,100169.97
2024-02-06T06:29:03.636Z,100169.44
2024-02-06T06:32:05.951Z,100167.19
2024-02-06T06:35:09.287Z,100165.94
2024-02-06T06:38:11.484Z,100163.06
2024-02-06T06:41:13.865Z,100153.22
2024-02-06T06:44:16.138Z,100164.31
2024-02-06T06:47:18.663Z,100159.34
2024-02-06T06:50:24.476Z,100169.50
2024-02-06T06:53:26.924Z,100185.91
2024-02-06T06:56:29.091Z,100172.28
2024-02-06T06:59:32.622Z,100172.66
2024-02-06T07:02:34.770Z,100162.22
2024-02-06T07:05:37.186Z,100169.66
2024-02-06T07:08:40.138Z,100161.63
2024-02-06T07:11:43.636Z,100158.13
2024-02-06T07:14:46.155Z,100154.63
2024-02-06T07:17:48.842Z,100149.47
2024-02-06T07:20:51.027Z,100157.75
2024-02-06T07:23:54.530Z,100157.25
2024-02-06T07:26:56.733Z,100161.28
2024-02-06T07:29:59.627Z,100166.31
2024-02-06T07:33:02.018Z,100168.75
2024-02-06T07:36:04.463Z,100164.06
2024-02-06T07:39:06.617Z,100159.41
2024-02-06T07:42:09.145Z,100166.47
2024-02-06T07:45:11.268Z,100168.56
2024-02-06T07:48:13.699Z,100170.50
2024-02-06T07:51:15.816Z,100161.00
2024-02-06T07:54:18.246Z,100169.88
2024-02-06T07:57:20.490Z,100168.28
2024-02-06T08:00:22.864Z,100170.38
2024-02-06T08:03:25.411Z,100163.91
2024-02-06T08:06:27.700Z,100185.38
2024-02-06T08:09:30.183Z,100175.69
2024-02-06T08:12:33.818Z,100167.91
2024-02-06T08:15:36.496Z,100163.28
2024-02-06T08:18:39.122Z,100166.94
2024-02-06T08:21:41.843Z,100162.91
2024-02-06T08:24:44.018Z,100187.03
2024-02-06T08:27:46.459Z,100173.16
2024-02-06T08:30:50.066Z,100202.25
2024-02-06T08:33:52.709Z,100186.28
2024-02-06T08:36:55.032Z,100180.47
2024-02-06T08:39:58.168Z,100181.91
2024-02-06T08:43:00.359Z,100191.28
2024-02-06T08:46:02.789Z,100171.72
2024-02-06T08:49:04.931Z,100159.66
2024-02-06T08:52:07.331Z,100165.75
2024-02-06T08:55:09.803Z,100175.69
2024-02-06T08:58:12.228Z,100193.91
2024-02-06T09:01:14.722Z,100205.41
2024-02-06T09:04:17.423Z,100197.84
2024-02-06T09:07:21.027Z,100204.59
2024-02-06T09:10:26.393Z,100204.09
2024-02-06T09:13:29.078Z,100205.69
2024-02-06T09:16:31.562Z,100195.88
2024-02-06T09:19:33.846Z,100195.97
2024-02-06T09:22:38.645Z,100202.09
2024-02-06T09:25:44.223Z,100200.50
2024-02-06T09:28:46.676Z,100198.03
2024-02-06T09:31:48.924Z,100197.84
2024-02-06T09:34:54.007Z,100193.75
2024-02-06T09:37:57.608Z,100201.53
2024-02-06T09:41:01.616Z,100208.31
2024-02-06T09:44:03.879Z,100220.88
2024-02-06T09:47:07.997Z,100224.22
2024-02-06T09:50:10.853Z,100232.00
2024-02-06T09:53:13.660Z,100226.19
2024-02-06T09:56:16.090Z,100214.59
2024-02-06T09:59:20.113Z,100210.34
2024-02-06T10:02:25.313Z,100192.28
2024-02-06T10:05:32.633Z,100193.81
2024-02-06T10:08:34.842Z,100189.91
2024-02-06T10:11:37.918Z,100206.63
2024-02-06T10:14:40.281Z,100206.56
2024-02-06T10:17:42.667Z,100203.72
2024-02-06T10:20:45.057Z,100198.91
2024-02-06T10:23:47.822Z,100190.56
2024-02-06T10:26:58.714Z,100193.88
2024-02-06T10:30:04.840Z,100188.31
2024-02-06T10:33:14.625Z,100187.47
2024-02-06T10:36:17.796Z,100186.41
2024-02-06T10:39:19.926Z,100187.72
2024-02-06T10:42:53.488Z,100187.56
2024-02-06T10:45:45.797Z,100174.16
2024-02-06T10:48:48.285Z,100178.50
2024-02-06T10:51:50.875Z,100155.72
2024-02-06T10:54:53.544Z,100160.66
2024-02-06T10:58:15.970Z,100147.06
2024-02-06T11:01:18.837Z,100143.88
2024-02-06T11:04:23.426Z,100150.53
2024-02-06T11:07:28.516Z,100155.00
2024-02-06T11:10:37.607Z,100154.50
2024-02-06T11:13:51.903Z,100149.63
2024-02-06T11:16:56.555Z,100146.88
2024-02-06T11:20:05.538Z,100139.22
2024-02-06T11:23:08.672Z,100139.91
2024-02-06T11:26:12.825Z,100134.28
2024-02-06T11:29:15.076Z,100128.69
2024-02-06T11:32:17.966Z,100127.97
2024-02-06T11:35:29.462Z,100131.06
2024-02-06T11:38:31.983Z,100123.97
2024-02-06T11:41:34.500Z,100130.34
2024-02-06T11:44:36.879Z,100120.84
2024-02-06T11:47:50.835Z,100112.94
2024-02-06T11:50:53.511Z,100120.41
2024-02-06T11:53:55.723Z,100111.63
2024-02-06T11:56:59.768Z,100120.84
2024-02-06T12:00:03.229Z,100127.53
2024-02-06T12:03:15.337Z,100114.28
2024-02-06T12:06:22.488Z,100114.13
2024-02-06T12:09:25.773Z,100104.00
2024-02-06T12:12:28.599Z,100103.06
2024-02-06T12:15:31.392Z,100102.16
2024-02-06T12:18:34.131Z,100093.12
2024-02-06T12:21:36.514Z,100089.28
2024-02-06T12:24:38.928Z,100101.19
2024-02-06T12:27:41.920Z,100095.25
2024-02-06T12:30:50.551Z,100076.59
2024-02-06T12:33:53.096Z,100085.41
2024-02-06T12:36:55.720Z,100078.53
2024-02-06T12:40:01.830Z,100070.78
2024-02-06T12:43:04.955Z,100060.22
2024-02-06T12:46:07.738Z,100062.34
2024-02-06T12:49:10.437Z,100050.56
2024-02-06T12:52:18.707Z,100057.66
2024-02-06T12:55:22.188Z,100056.72
2024-02-06T12:58:24.441Z,100065.44
2024-02-06T13:01:26.981Z,100051.25
2024-02-06T13:04:29.232Z,100053.34
2024-02-06T13:07:31.897Z,100044.16
2024-02-06T13:10:34.780Z,100054.03
2024-02-06T13:13:37.750Z,100045.91
2024-02-06T13:16:40.163Z,100040.31
2024-02-06T13:19:42.749Z,100041.25
2024-02-06T13:22:45.187Z,100029.34
2024-02-06T13:25:47.756Z,100029.19
2024-02-06T13:28:59.287Z,100024.31
2024-02-06T13:32:01.872Z,100025.03
2024-02-06T13:35:05.085Z,100028.22
2024-02-06T13:38:08.118Z,100022.16
2024-02-06T13:41:10.394Z,100021.28
2024-02-06T13:44:12.780Z,100019.34
2024-02-06T13:47:14.905Z,100013.87
2024-02-06T13:50:18.224Z,100014.31
2024-02-06T13:53:20.413Z,100009.13
2024-02-06T13:56:25.211Z,100017.25
2024-02-06T13:59:27.831Z,100011.31
2024-02-06T14:02:30.438Z,100008.62
2024-02-06T14:05:34.818Z,100005.66
2024-02-06T14:08:37.018Z,100004.59
2024-02-06T14:11:40.553Z,100007.91
2024-02-06T14:14:42.680Z,100007.16
2024-02-06T14:17:46.867Z,100011.94
2024-02-06T14:20:49.180Z,100023.03
2024-02-06T14:23:51.619Z,100022.22
2024-02-06T14:26:53.780Z,100014.94
2024-02-06T14:29:56.146Z,100010.91
2024-02-06T14:32:58.272Z,100006.47
2024-02-06T14:36:00.875Z,100019.91
2024-02-06T14:39:05.520Z,100002.66
2024-02-06T14:42:07.946Z,99999.78
2024-02-06T14:45:10.347Z,100009.53
2024-02-06T14:48:12.942Z,99995.03
2024-02-06T14:51:17.336Z,99994.19
2024-02-06T14:54:20.137Z,99996.47
2024-02-06T14:57:24.506Z,99994.00
2024-02-06T15:00:28.211Z,100004.97
2024-02-06T15:03:30.372Z,99993.75
2024-02-06T15:06:33.221Z,99991.28
2024-02-06T15:09:37.535Z,100000.72
2024-02-06T15:12:39.958Z,99998.12
2024-02-06T15:15:42.045Z,100002.09
2024-02-06T15:18:44.622Z,100001.50
2024-02-06T15:21:47.416Z,100004.97
2024-02-06T15:24:50.380Z,100009.56
2024-02-06T15:27:52.493Z,100009.91
2024-02-06T15:30:54.904Z,99990.28
2024-02-06T15:33:57.141Z,99998.50
2024-02-06T15:37:04.498Z,99994.03
2024-02-06T15:40:08.167Z,99999.78
2024-02-06T15:43:10.712Z,100004.78
2024-02-06T15:46:12.877Z,99996.38
2024-02-06T15:49:15.520Z,99989.53
2024-02-06T15:52:17.841Z,99997.22
2024-02-06T15:55:23.753Z,99996.75
2024-02-06T15:58:25.954Z,100012.00
2024-02-06T16:01:28.504Z,100008.75
2024-02-06T16:04:31.579Z,100001.06
2024-02-06T16:07:35.038Z,100006.84
2024-02-06T16:10:37.528Z,100012.19
2024-02-06T16:13:39.716Z,100005.75
2024-02-06T16:16:42.426Z,100008.41
2024-02-06T16:19:44.703Z,100008.62
2024-02-06T16:22:47.218Z,100009.75
2024-02-06T16:25:49.465Z,100021.09
2024-02-06T16:28:51.941Z,100017.75
2024-02-06T16:31:54.187Z,100014.84
2024-02-06T16:35:01.708Z,100019.81
2024-02-06T16:38:10.381Z,100033.28
2024-02-06T16:41:12.769Z,100043.47
2024-02-06T16:44:14.867Z,100042.94
2024-02-06T16:47:19.539Z,100027.41
2024-02-06T16:50:21.957Z,100039.56
2024-02-06T16:53:24.393Z,100040.19
2024-02-06T16:56:26.614Z,100053.50
2024-02-06T16:59:29.077Z,100055.31
2024-02-06T17:02:31.226Z,100059.16
2024-02-06T17:05:33.990Z,100055.06
2024-02-06T17:08:36.213Z,100055.78
2024-02-06T17:11:44.945Z,100047.34
2024-02-06T17:14:48.414Z,100042.94
2024-02-06T17:17:50.858Z,100053.13
2024-02-06T17:20:53.117Z,100048.28
2024-02-06T17:23:56.056Z,100045.38
2024-02-06T17:26:58.269Z,100035.84
2024-02-06T17:30:00.829Z,100047.06
2024-02-06T17:33:03.718Z,100055.72
2024-02-06T17:36:06.427Z,100055.19
2024-02-06T17:39:09.039Z,100060.25
2024-02-06T17:42:11.791Z,100062.59
2024-02-06T17:45:14.565Z,100065.62
2024-02-06T17:48:17.810Z,100075.75
2024-02-06T17:51:20.028Z,100078.09
2024-02-06T17:54:22.536Z,100072.81
2024-02-06T17:57:24.746Z,100070.06
2024-02-06T18:00:27.154Z,100077.00
2024-02-06T18:03:32.098Z,100071.41
2024-02-06T18:06:34.664Z,100063.47
2024-02-06T18:09:37.072Z,100074.31
2024-02-06T18:12:39.288Z,100069.91
2024-02-06T18:15:41.818Z,100072.56
2024-02-06T18:18:44.041Z,100065.34
2024-02-06T18:21:46.485Z,100066.97
2024-02-06T18:24:48.541Z,100058.91
2024-02-06T18:27:50.914Z,100057.13
2024-02-06T18:30:53.060Z,100062.41
2024-02-06T18:33:56.482Z,100056.41
2024-02-06T18:36:59.281Z,100062.66
2024-02-06T18:40:01.779Z,100064.84
2024-02-06T18:43:04.103Z,100060.84
2024-02-06T18:46:06.843Z,100068.56
2024-02-06T18:49:09.337Z,100070.78
2024-02-06T18:52:14.329Z,100065.97
2024-02-06T18:55:16.530Z,100060.44
2024-02-06T18:58:18.989Z,100064.63
2024-02-06T19:01:24.384Z,100051.84
2024-02-06T19:04:27.095Z,100039.56
2024-02-06T19:07:29.285Z,100044.19
2024-02-06T19:10:31.729Z,100051.22
2024-02-06T19:13:34.072Z,100053.16
2024-02-06T19:16:40.483Z,100051.09
2024-02-06T19:19:44.603Z,100045.47
2024-02-06T19:22:47.241Z,100052.50
2024-02-06T19:25:50.844Z,100046.87
2024-02-06T19:28:53.724Z,100042.84
2024-02-06T19:31:58.694Z,100045.16
2024-02-06T19:35:06.370Z,100050.22
2024-02-06T19:38:14.655Z,100041.72
2024-02-06T19:41:17.214Z,100047.25
2024-02-06T19:44:23.163Z,100047.94
2024-02-06T19:47:25.835Z,100044.72
2024-02-06T19:50:28.098Z,100036.81
2024-02-06T19:53:30.532Z,100038.31
2024-02-06T19:56:33.429Z,100036.59
2024-02-06T19:59:35.881Z,100039.00
2024-02-06T20:02:38.096Z,100040.97
2024-02-06T20:05:41.086Z,100033.37
2024-02-06T20:08:46.938Z,100038.09
2024-02-06T20:11:52.914Z,100034.88
2024-02-06T20:14:56.294Z,100043.41
2024-02-06T20:17:59.522Z,100047.28
2024-02-06T20:21:01.741Z,100058.31
2024-02-06T20:24:04.316Z,100070.50
2024-02-06T20:27:06.631Z,100068.44
2024-02-06T20:30:09.219Z,100067.19
2024-02-06T20:33:11.487Z,100074.53
2024-02-06T20:36:14.029Z,100079.22
2024-02-06T20:39:16.816Z,100077.66
2024-02-06T20:42:19.910Z,100084.97
2024-02-06T20:45:22.014Z,100072.34
2024-02-06T20:48:24.523Z,100074.19
2024-02-06T20:51:26.941Z,100070.16
2024-02-06T20:54:29.357Z,100061.31
2024-02-06T20:57:32.763Z,100061.84
2024-02-06T21:00:35.189Z,100058.97
2024-02-06T21:03:37.285Z,100061.72
2024-02-06T21:06:39.834Z,100054.28
2024-02-06T21:09:41.924Z,100051.44
2024-02-06T21:12:44.532Z,100050.37
2024-02-06T21:15:47.995Z,100058.31
2024-02-06T21:18:50.660Z,100053.47
2024-02-06T21:21:52.882Z,100040.72
2024-02-06T21:24:55.286Z,100050.47
2024-02-06T21:27:57.457Z,100053.22
2024-02-06T21:31:02.783Z,100054.37
2024-02-06T21:34:04.932Z,100047.72
2024-02-06T21:37:07.405Z,100053.00
2024-02-06T21:40:09.864Z,100031.66
2024-02-06T21:43:12.556Z,100038.50
2024-02-06T21:46:14.742Z,100033.00
2024-02-06T21:49:17.170Z,100035.97
2024-02-06T21:52:19.809Z,100036.22
2024-02-06T21:55:22.454Z,100027.00
2024-02-06T21:58:24.938Z,100027.81
2024-02-06T22:01:27.427Z,100031.84
2024-02-06T22:04:30.725Z,100017.63
2024-02-06T22:07:36.133Z,100022.22
2024-02-06T22:10:56.433Z,100017.16
2024-02-06T22:13:59.547Z,100011.97
2024-02-06T22:17:02.102Z,100008.62
2024-02-06T22:20:05.021Z,100011.62
2024-02-06T22:23:08.580Z,99993.94
2024-02-06T22:26:10.823Z,100003.81
2024-02-06T22:29:14.084Z,100003.03
2024-02-06T22:32:16.642Z,99995.09
2024-02-06T22:35:19.201Z,100000.16
2024-02-06T22:38:21.354Z,100000.28
2024-02-06T22:41:23.965Z,100007.72
2024-02-06T22:44:26.465Z,99995.09
2024-02-06T22:47:29.206Z,100012.44
2024-02-06T22:50:31.531Z,100015.41
2024-02-06T22:53:33.965Z,100002.91
2024-02-06T22:56:36.872Z,100010.69
2024-02-06T22:59:39.242Z,100007.59
2024-02-06T23:02:42.395Z,100003.56
2024-02-06T23:05:44.739Z,100001.06
2024-02-06T23:08:47.931Z,100004.94
2024-02-06T23:11:51.301Z,100001.06
2024-02-06T23:14:53.424Z,100008.94
2024-02-06T23:17:55.977Z,100005.75
2024-02-06T23:20:58.054Z,100003.00
2024-02-06T23:24:00.940Z,100004.13
2024-02-06T23:27:03.128Z,99989.91
2024-02-06T23:30:07.698Z,99991.53
2024-02-06T23:33:09.948Z,99989.59
2024-02-06T23:36:12.527Z,99985.22
2024-02-06T23:39:16.699Z,99980.38
2024-02-06T23:42:19.598Z,99972.47
2024-02-06T23:45:22.600Z,99977.19
2024-02-06T23:48:25.228Z,99969.16
2024-02-06T23:51:28.859Z,99971.41
2024-02-06T23:54:31.256Z,99966.84
2024-02-06T23:57:33.330Z,99964.56
